createdAt,value
2022-12-05T00:01:17.213Z,99843.00
2022-12-05T00:03:45.633Z,99847.38
2022-12-05T00:06:13.333Z,99856.06
2022-12-05T00:08:40.998Z,99857.84
2022-12-05T00:11:13.490Z,99864.78
2022-12-05T00:13:41.330Z,99869.09
2022-12-05T00:16:12.649Z,99863.81
2022-12-05T00:18:40.905Z,99872.44
2022-12-05T00:21:12.695Z,99867.19
2022-12-05T00:23:40.307Z,99860.41
2022-12-05T00:26:08.134Z,99859.69
2022-12-05T00:28:36.363Z,99864.00
2022-12-05T00:31:07.040Z,99859.69
2022-12-05T00:33:36.099Z,99864.84
2022-12-05T00:36:04.950Z,99869.94
2022-12-05T00:38:32.715Z,99866.16
2022-12-05T00:41:03.914Z,99876.78
2022-12-05T00:43:31.595Z,99873.25
2022-12-05T00:46:02.286Z,99879.50
2022-12-05T00:48:30.110Z,99874.41
2022-12-05T00:51:02.957Z,99878.69
2022-12-05T00:53:30.750Z,99879.66
2022-12-05T00:56:02.375Z,99880.66
2022-12-05T00:58:30.416Z,99887.66
2022-12-05T01:00:58.094Z,99878.34
2022-12-05T01:03:25.869Z,99876.03
2022-12-05T01:05:53.522Z,99883.00
2022-12-05T01:08:22.502Z,99883.13
2022-12-05T01:10:54.519Z,99885.06
2022-12-05T01:13:22.300Z,99877.56
2022-12-05T01:15:49.877Z,99881.34
2022-12-05T01:18:17.434Z,99879.78
2022-12-05T01:20:45.665Z,99882.22
2022-12-05T01:23:13.552Z,99884.75
2022-12-05T01:25:43.884Z,99887.13
2022-12-05T01:28:11.882Z,99891.59
2022-12-05T01:30:40.515Z,99900.84
2022-12-05T01:33:08.560Z,99901.59
2022-12-05T01:35:37.660Z,99915.13
2022-12-05T01:38:06.283Z,99903.28
2022-12-05T01:40:36.292Z,99905.25
2022-12-05T01:43:07.587Z,99913.88
2022-12-05T01:45:37.749Z,99912.25
2022-12-05T01:48:10.267Z,99915.78
2022-12-05T01:50:38.539Z,99903.69
2022-12-05T01:53:06.627Z,99904.81
2022-12-05T01:55:36.453Z,99904.66
2022-12-05T01:58:07.541Z,99914.09
2022-12-05T02:00:37.291Z,99921.66
2022-12-05T02:03:08.929Z,99909.00
2022-12-05T02:05:38.007Z,99915.00
2022-12-05T02:08:07.964Z,99922.53
2022-12-05T02:10:39.662Z,99920.97
2022-12-05T02:13:37.302Z,99915.13
2022-12-05T02:16:11.826Z,99931.28
2022-12-05T02:18:51.458Z,99928.66
2022-12-05T02:21:49.374Z,99935.50
2022-12-05T02:24:35.644Z,99942.50
2022-12-05T02:27:22.069Z,99948.53
2022-12-05T02:30:10.848Z,99949.34
2022-12-05T02:33:07.644Z,99945.84
2022-12-05T02:35:44.361Z,99950.22
2022-12-05T02:38:22.887Z,99945.06
2022-12-05T02:41:00.034Z,99948.41
2022-12-05T02:43:33.614Z,99948.53
2022-12-05T02:46:08.994Z,99952.88
2022-12-05T02:48:38.480Z,99958.09
2022-12-05T02:51:09.949Z,99953.00
2022-12-05T02:53:39.307Z,99959.84
2022-12-05T02:56:08.085Z,99952.38
2022-12-05T02:58:42.142Z,99959.28
2022-12-05T03:01:11.564Z,99962.06
2022-12-05T03:03:39.210Z,99965.41
2022-12-05T03:06:13.207Z,99978.88
2022-12-05T03:08:45.882Z,99978.94
2022-12-05T03:11:14.159Z,99971.06
2022-12-05T03:13:46.656Z,99977.19
2022-12-05T03:16:21.088Z,99978.31
2022-12-05T03:18:54.644Z,99976.63
2022-12-05T03:21:29.234Z,99968.19
2022-12-05T03:24:01.492Z,99969.06
2022-12-05T03:26:47.524Z,99971.09
2022-12-05T03:29:23.984Z,99966.91
2022-12-05T03:32:03.996Z,99960.91
2022-12-05T03:34:41.273Z,99964.44
2022-12-05T03:37:14.310Z,99966.34
2022-12-05T03:39:46.313Z,99955.34
2022-12-05T03:42:17.016Z,99951.06
2022-12-05T03:44:51.485Z,99954.53
2022-12-05T03:47:27.602Z,99954.72
2022-12-05T03:50:00.485Z,99958.03
2022-12-05T03:52:51.062Z,99954.72
2022-12-05T03:55:24.941Z,99957.25
2022-12-05T03:57:58.109Z,99949.63
2022-12-05T04:00:27.578Z,99958.19
2022-12-05T04:03:00.777Z,99956.28
2022-12-05T04:05:34.664Z,99965.69
2022-12-05T04:08:07.395Z,99964.81
2022-12-05T04:10:48.514Z,99971.56
2022-12-05T04:13:19.565Z,99970.00
2022-12-05T04:16:09.885Z,99964.97
2022-12-05T04:18:43.603Z,99956.47
2022-12-05T04:21:32.075Z,99964.91
2022-12-05T04:24:17.312Z,99968.56
2022-12-05T04:26:48.690Z,99966.06
2022-12-05T04:29:23.553Z,99970.44
2022-12-05T04:31:55.872Z,99967.88
2022-12-05T04:34:29.152Z,99980.50
2022-12-05T04:36:58.989Z,99980.31
2022-12-05T04:39:30.260Z,99982.63
2022-12-05T04:42:03.278Z,99980.19
2022-12-05T04:44:34.433Z,99985.13
2022-12-05T04:47:06.592Z,99995.16
2022-12-05T04:49:37.052Z,99997.78
2022-12-05T04:52:09.303Z,99996.59
2022-12-05T04:54:41.409Z,100002.97
2022-12-05T04:57:13.474Z,100000.44
2022-12-05T04:59:41.086Z,99997.00
2022-12-05T05:02:10.416Z,100002.97
2022-12-05T05:04:43.411Z,99998.81
2022-12-05T05:07:13.346Z,100002.59
2022-12-05T05:09:41.625Z,99993.41
2022-12-05T05:12:13.186Z,99995.16
2022-12-05T05:14:43.252Z,99992.59
2022-12-05T05:17:10.886Z,99995.38
2022-12-05T05:19:39.726Z,99997.34
2022-12-05T05:22:07.285Z,99998.56
2022-12-05T05:24:34.894Z,100008.53
2022-12-05T05:27:02.499Z,100010.91
2022-12-05T05:29:30.128Z,100013.94
2022-12-05T05:31:57.634Z,100015.47
2022-12-05T05:34:26.601Z,100020.41
2022-12-05T05:36:55.479Z,100029.25
2022-12-05T05:39:23.131Z,100020.97
2022-12-05T05:41:50.703Z,100017.59
2022-12-05T05:44:18.229Z,100020.97
2022-12-05T05:46:45.919Z,100022.69
2022-12-05T05:49:13.520Z,100029.38
2022-12-05T05:51:41.084Z,100028.38
2022-12-05T05:54:10.972Z,100034.16
2022-12-05T05:56:40.572Z,100034.16
2022-12-05T05:59:08.580Z,100026.44
2022-12-05T06:01:36.354Z,100024.13
2022-12-05T06:04:04.056Z,100030.97
2022-12-05T06:06:31.862Z,100033.47
2022-12-05T06:08:59.518Z,100039.44
2022-12-05T06:11:29.078Z,100049.94
2022-12-05T06:13:58.011Z,100056.78
2022-12-05T06:16:25.990Z,100057.75
2022-12-05T06:18:54.138Z,100061.88
2022-12-05T06:21:22.519Z,100059.69
2022-12-05T06:23:50.361Z,100052.41
2022-12-05T06:26:20.204Z,100055.47
2022-12-05T06:28:49.576Z,100060.22
2022-12-05T06:31:19.176Z,100064.22
2022-12-05T06:33:47.481Z,100058.41
2022-12-05T06:36:17.827Z,100062.91
2022-12-05T06:38:45.519Z,100072.69
2022-12-05T06:41:15.921Z,100071.25
2022-12-05T06:43:43.510Z,100075.31
2022-12-05T06:46:14.494Z,100069.63
2022-12-05T06:48:42.407Z,100074.72
2022-12-05T06:51:11.210Z,100074.94
2022-12-05T06:53:39.301Z,100079.31
2022-12-05T06:56:08.956Z,100076.91
2022-12-05T06:58:36.588Z,100085.22
2022-12-05T07:01:21.977Z,100093.69
2022-12-05T07:03:51.080Z,100095.56
2022-12-05T07:06:18.671Z,100104.66
2022-12-05T07:08:47.549Z,100106.03
2022-12-05T07:11:15.237Z,100100.94
2022-12-05T07:13:42.812Z,100119.13
2022-12-05T07:16:10.426Z,100109.88
2022-12-05T07:18:38.305Z,100113.34
2022-12-05T07:21:12.273Z,100124.25
2022-12-05T07:23:41.301Z,100120.28
2022-12-05T07:26:10.592Z,100123.78
2022-12-05T07:28:38.138Z,100123.63
2022-12-05T07:31:08.058Z,100127.75
2022-12-05T07:33:36.255Z,100123.53
2022-12-05T07:36:05.537Z,100126.66
2022-12-05T07:38:34.609Z,100130.88
2022-12-05T07:41:11.609Z,100127.53
2022-12-05T07:43:40.935Z,100142.63
2022-12-05T07:46:11.170Z,100141.66
2022-12-05T07:48:39.283Z,100138.22
2022-12-05T07:51:08.562Z,100132.00
2022-12-05T07:53:38.924Z,100136.41
2022-12-05T07:56:09.058Z,100142.78
2022-12-05T07:58:37.163Z,100143.34
2022-12-05T08:01:08.502Z,100145.81
2022-12-05T08:03:37.359Z,100138.94
2022-12-05T08:06:06.193Z,100139.28
2022-12-05T08:08:34.082Z,100142.06
2022-12-05T08:11:06.284Z,100144.75
2022-12-05T08:13:34.312Z,100142.28
2022-12-05T08:16:03.665Z,100144.16
2022-12-05T08:18:31.927Z,100143.31
2022-12-05T08:21:03.033Z,100150.16
2022-12-05T08:23:31.832Z,100157.59
2022-12-05T08:26:02.891Z,100155.81
2022-12-05T08:28:32.378Z,100167.22
2022-12-05T08:31:05.226Z,100166.19
2022-12-05T08:33:32.971Z,100169.44
2022-12-05T08:36:02.063Z,100164.25
2022-12-05T08:38:29.612Z,100168.31
2022-12-05T08:40:57.174Z,100170.25
2022-12-05T08:43:24.692Z,100171.09
2022-12-05T08:45:54.161Z,100173.66
2022-12-05T08:48:27.555Z,100175.97
2022-12-05T08:50:57.661Z,100175.34
2022-12-05T08:53:25.525Z,100178.31
2022-12-05T08:55:53.114Z,100184.41
2022-12-05T08:58:20.689Z,100181.97
2022-12-05T09:00:48.388Z,100191.19
2022-12-05T09:03:17.305Z,100195.47
2022-12-05T09:05:44.884Z,100200.59
2022-12-05T09:08:12.528Z,100196.47
2022-12-05T09:10:40.136Z,100208.34
2022-12-05T09:13:07.659Z,100212.88
2022-12-05T09:15:35.326Z,100213.00
2022-12-05T09:18:02.874Z,100220.03
2022-12-05T09:20:31.716Z,100220.19
2022-12-05T09:22:59.276Z,100225.38
2022-12-05T09:25:26.957Z,100226.66
2022-12-05T09:27:54.906Z,100225.91
2022-12-05T09:30:22.402Z,100234.53
2022-12-05T09:32:49.945Z,100232.38
2022-12-05T09:35:17.592Z,100239.78
2022-12-05T09:37:46.462Z,100244.88
2022-12-05T09:40:17.463Z,100257.00
2022-12-05T09:42:59.977Z,100257.34
2022-12-05T09:45:35.510Z,100261.63
2022-12-05T09:48:08.404Z,100250.31
2022-12-05T09:50:43.064Z,100241.72
2022-12-05T09:53:20.209Z,100234.06
2022-12-05T09:55:53.069Z,100239.47
2022-12-05T09:58:39.414Z,100234.69
2022-12-05T10:01:32.478Z,100236.28
2022-12-05T10:04:17.877Z,100238.75
2022-12-05T10:06:56.178Z,100241.09
2022-12-05T10:09:42.579Z,100247.94
2022-12-05T10:12:20.999Z,100249.50
2022-12-05T10:14:59.989Z,100246.97
2022-12-05T10:17:32.656Z,100249.50
2022-12-05T10:20:05.687Z,100246.03
2022-12-05T10:22:43.211Z,100242.66
2022-12-05T10:25:15.936Z,100241.22
2022-12-05T10:27:49.991Z,100241.47
2022-12-05T10:30:19.674Z,100247.38
2022-12-05T10:32:53.977Z,100238.91
2022-12-05T10:35:24.626Z,100241.47
2022-12-05T10:37:55.184Z,100232.28
2022-12-05T10:40:25.863Z,100231.66
2022-12-05T10:42:53.544Z,100231.97
2022-12-05T10:45:23.050Z,100232.38
2022-12-05T10:47:55.968Z,100230.47
2022-12-05T10:50:26.807Z,100227.56
2022-12-05T10:52:56.808Z,100212.88
2022-12-05T10:55:31.934Z,100217.72
2022-12-05T10:58:17.635Z,100213.06
2022-12-05T11:00:48.689Z,100219.25
2022-12-05T11:03:26.868Z,100227.06
2022-12-05T11:05:56.767Z,100221.97
2022-12-05T11:08:48.235Z,100222.91
2022-12-05T11:11:22.787Z,100219.16
2022-12-05T11:13:55.003Z,100216.47
2022-12-05T11:16:25.320Z,100216.59
2022-12-05T11:18:53.216Z,100219.31
2022-12-05T11:21:20.860Z,100214.47
2022-12-05T11:23:49.099Z,100217.25
2022-12-05T11:26:35.965Z,100216.81
2022-12-05T11:29:04.379Z,100220.94
2022-12-05T11:31:32.504Z,100212.09
2022-12-05T11:34:12.714Z,100207.44
2022-12-05T11:36:44.049Z,100210.63
2022-12-05T11:39:13.617Z,100208.16
2022-12-05T11:42:04.024Z,100208.22
2022-12-05T11:44:49.554Z,100210.97
2022-12-05T11:47:29.410Z,100206.97
2022-12-05T11:50:14.047Z,100197.91
2022-12-05T11:52:58.414Z,100198.66
2022-12-05T11:55:30.866Z,100201.13
2022-12-05T11:58:16.457Z,100198.59
2022-12-05T12:00:57.568Z,100196.63
2022-12-05T12:03:39.868Z,100202.50
2022-12-05T12:06:25.970Z,100201.03
2022-12-05T12:09:16.399Z,100194.88
2022-12-05T12:11:50.207Z,100192.66
2022-12-05T12:14:26.301Z,100190.16
2022-12-05T12:17:04.153Z,100189.94
2022-12-05T12:19:44.745Z,100200.94
2022-12-05T12:22:27.816Z,100192.44
2022-12-05T12:25:16.499Z,100200.78
2022-12-05T12:28:02.948Z,100213.06
2022-12-05T12:30:51.388Z,100191.63
2022-12-05T12:33:31.497Z,100191.91
2022-12-05T12:36:08.092Z,100192.84
2022-12-05T12:38:54.261Z,100186.03
2022-12-05T12:41:42.643Z,100189.75
2022-12-05T12:44:33.966Z,100191.78
2022-12-05T12:47:05.198Z,100197.16
2022-12-05T12:49:49.471Z,100198.03
2022-12-05T12:52:21.278Z,100202.25
2022-12-05T12:55:15.993Z,100193.06
2022-12-05T12:58:02.151Z,100202.69
2022-12-05T13:00:39.494Z,100199.97
2022-12-05T13:03:13.861Z,100197.81
2022-12-05T13:05:47.586Z,100189.59
2022-12-05T13:08:22.238Z,100193.16
2022-12-05T13:10:50.158Z,100197.91
2022-12-05T13:13:22.191Z,100196.69
2022-12-05T13:15:52.410Z,100192.44
2022-12-05T13:18:23.443Z,100193.31
2022-12-05T13:20:53.516Z,100197.66
2022-12-05T13:23:24.819Z,100197.16
2022-12-05T13:25:54.737Z,100199.91
2022-12-05T13:28:29.751Z,100198.91
2022-12-05T13:31:01.594Z,100189.47
2022-12-05T13:33:34.526Z,100202.00
2022-12-05T13:36:28.644Z,100208.88
2022-12-05T13:39:19.594Z,100204.69
2022-12-05T13:42:08.540Z,100197.81
2022-12-05T13:44:40.122Z,100202.13
2022-12-05T13:47:19.812Z,100199.66
2022-12-05T13:49:53.668Z,100196.22
2022-12-05T13:52:24.942Z,100197.97
2022-12-05T13:54:58.305Z,100194.00
2022-12-05T13:57:40.578Z,100200.53
2022-12-05T14:00:23.085Z,100205.72
2022-12-05T14:02:56.499Z,100198.78
2022-12-05T14:05:53.340Z,100203.22
2022-12-05T14:08:56.715Z,100204.44
2022-12-05T14:11:24.792Z,100217.22
2022-12-05T14:13:52.806Z,100212.91
2022-12-05T14:16:49.256Z,100218.03
2022-12-05T14:19:43.118Z,100212.66
2022-12-05T14:22:31.205Z,100215.25
2022-12-05T14:25:07.349Z,100224.63
2022-12-05T14:27:48.736Z,100230.94
2022-12-05T14:30:25.074Z,100220.28
2022-12-05T14:32:55.038Z,100226.44
2022-12-05T14:35:29.233Z,100230.41
2022-12-05T14:38:02.086Z,100234.50
2022-12-05T14:40:33.353Z,100235.56
2022-12-05T14:43:03.592Z,100230.25
2022-12-05T14:45:35.536Z,100231.72
2022-12-05T14:48:06.511Z,100236.81
2022-12-05T14:50:41.421Z,100234.22
2022-12-05T14:53:23.094Z,100228.06
2022-12-05T14:55:54.682Z,100226.31
2022-12-05T14:58:33.711Z,100222.31
2022-12-05T15:01:04.350Z,100225.84
2022-12-05T15:03:35.706Z,100237.44
2022-12-05T15:06:05.919Z,100239.75
2022-12-05T15:08:44.870Z,100234.38
2022-12-05T15:11:28.044Z,100238.44
2022-12-05T15:13:59.388Z,100239.19
2022-12-05T15:16:29.919Z,100242.56
2022-12-05T15:19:03.311Z,100241.66
2022-12-05T15:21:34.256Z,100242.69
2022-12-05T15:24:05.577Z,100250.22
2022-12-05T15:26:48.281Z,100242.56
2022-12-05T15:29:24.304Z,100247.69
2022-12-05T15:31:53.828Z,100250.06
2022-12-05T15:34:25.654Z,100247.38
2022-12-05T15:36:58.861Z,100248.63
2022-12-05T15:39:28.491Z,100249.47
2022-12-05T15:41:57.928Z,100249.28
2022-12-05T15:44:34.415Z,100244.72
2022-12-05T15:47:05.319Z,100257.13
2022-12-05T15:49:32.927Z,100264.41
2022-12-05T15:52:11.095Z,100266.91
2022-12-05T15:54:40.873Z,100269.78
2022-12-05T15:57:13.529Z,100267.94
2022-12-05T15:59:45.940Z,100265.31
2022-12-05T16:02:18.151Z,100268.69
2022-12-05T16:04:50.337Z,100258.31
2022-12-05T16:07:18.714Z,100260.06
2022-12-05T16:09:48.681Z,100270.28
2022-12-05T16:12:21.126Z,100265.03
2022-12-05T16:15:00.654Z,100268.25
2022-12-05T16:17:30.784Z,100276.84
2022-12-05T16:20:22.466Z,100269.19
2022-12-05T16:22:53.905Z,100265.63
2022-12-05T16:25:27.375Z,100266.34
2022-12-05T16:28:03.884Z,100265.56
2022-12-05T16:30:32.601Z,100272.25
2022-12-05T16:33:05.368Z,100267.03
2022-12-05T16:35:37.137Z,100274.69
2022-12-05T16:38:19.320Z,100274.75
2022-12-05T16:40:57.177Z,100271.47
2022-12-05T16:43:29.063Z,100281.56
2022-12-05T16:45:59.588Z,100276.28
2022-12-05T16:48:28.416Z,100279.34
2022-12-05T16:51:18.355Z,100275.78
2022-12-05T16:53:47.572Z,100278.22
2022-12-05T16:56:19.501Z,100274.78
2022-12-05T16:58:47.529Z,100275.50
2022-12-05T17:01:19.211Z,100280.63
2022-12-05T17:03:47.278Z,100282.94
2022-12-05T17:06:16.042Z,100286.19
2022-12-05T17:08:43.629Z,100292.72
2022-12-05T17:11:18.131Z,100285.78
2022-12-05T17:13:48.295Z,100284.97
2022-12-05T17:16:16.251Z,100290.75
2022-12-05T17:18:44.178Z,100287.63
2022-12-05T17:21:15.962Z,100288.63
2022-12-05T17:23:47.768Z,100287.81
2022-12-05T17:26:19.227Z,100288.63
2022-12-05T17:28:47.224Z,100282.63
2022-12-05T17:31:17.150Z,100281.81
2022-12-05T17:33:45.754Z,100288.53
2022-12-05T17:36:14.115Z,100289.31
2022-12-05T17:38:41.770Z,100287.56
2022-12-05T17:41:15.226Z,100295.19
2022-12-05T17:43:44.908Z,100298.56
2022-12-05T17:46:13.615Z,100302.63
2022-12-05T17:48:41.217Z,100298.28
2022-12-05T17:51:11.233Z,100298.03
2022-12-05T17:53:39.152Z,100291.69
2022-12-05T17:56:07.487Z,100298.91
2022-12-05T17:58:35.089Z,100294.19
2022-12-05T18:01:04.578Z,100298.28
2022-12-05T18:03:32.550Z,100296.44
2022-12-05T18:06:00.251Z,100307.53
2022-12-05T18:08:28.658Z,100307.41
2022-12-05T18:10:56.996Z,100300.38
2022-12-05T18:13:24.591Z,100303.56
2022-12-05T18:15:57.728Z,100299.19
2022-12-05T18:18:27.289Z,100301.66
2022-12-05T18:21:05.051Z,100305.00
2022-12-05T18:23:32.673Z,100300.63
2022-12-05T18:26:00.656Z,100305.81
2022-12-05T18:28:28.445Z,100299.75
2022-12-05T18:31:09.915Z,100303.88
2022-12-05T18:33:40.887Z,100309.78
2022-12-05T18:36:10.286Z,100302.13
2022-12-05T18:38:38.978Z,100302.13
2022-12-05T18:41:07.441Z,100306.03
2022-12-05T18:43:35.167Z,100296.22
2022-12-05T18:46:05.336Z,100306.31
2022-12-05T18:48:47.014Z,100303.66
2022-12-05T18:51:18.691Z,100314.59
2022-12-05T18:53:51.888Z,100309.41
2022-12-05T18:56:23.161Z,100316.34
2022-12-05T18:58:56.884Z,100314.41
2022-12-05T19:01:25.423Z,100313.66
2022-12-05T19:03:53.822Z,100322.88
2022-12-05T19:06:25.503Z,100313.31
2022-12-05T19:08:55.573Z,100317.28
2022-12-05T19:11:24.071Z,100310.28
2022-12-05T19:13:55.752Z,100317.78
2022-12-05T19:16:23.424Z,100314.16
2022-12-05T19:18:54.850Z,100304.69
2022-12-05T19:21:24.065Z,100301.16
2022-12-05T19:23:51.954Z,100302.47
2022-12-05T19:26:19.496Z,100300.59
2022-12-05T19:28:47.115Z,100301.81
2022-12-05T19:31:16.756Z,100297.72
2022-12-05T19:33:46.355Z,100300.88
2022-12-05T19:36:16.010Z,100307.16
2022-12-05T19:38:46.883Z,100299.09
2022-12-05T19:41:17.046Z,100301.25
2022-12-05T19:43:45.070Z,100301.06
2022-12-05T19:46:16.092Z,100301.66
2022-12-05T19:48:43.842Z,100302.13
2022-12-05T19:51:11.693Z,100301.94
2022-12-05T19:53:41.695Z,100295.38
2022-12-05T19:56:14.795Z,100297.78
2022-12-05T19:58:43.301Z,100300.94
2022-12-05T20:01:12.325Z,100306.97
2022-12-05T20:03:40.596Z,100312.69
2022-12-05T20:06:09.526Z,100304.28
2022-12-05T20:08:38.642Z,100311.13
2022-12-05T20:11:07.576Z,100319.72
2022-12-05T20:13:46.363Z,100321.47
2022-12-05T20:16:16.834Z,100319.72
2022-12-05T20:18:44.448Z,100320.94
2022-12-05T20:21:14.401Z,100325.50
2022-12-05T20:23:42.248Z,100313.75
2022-12-05T20:26:11.987Z,100311.34
2022-12-05T20:28:41.310Z,100307.22
2022-12-05T20:31:11.333Z,100313.88
2022-12-05T20:33:39.439Z,100313.00
2022-12-05T20:36:08.765Z,100318.97
2022-12-05T20:38:36.632Z,100320.78
2022-12-05T20:41:06.507Z,100318.38
2022-12-05T20:43:34.374Z,100314.06
2022-12-05T20:46:07.918Z,100318.28
2022-12-05T20:48:35.927Z,100319.16
2022-12-05T20:51:07.756Z,100319.78
2022-12-05T20:53:36.521Z,100325.00
2022-12-05T20:56:05.758Z,100327.59
2022-12-05T20:58:33.482Z,100326.00
2022-12-05T21:01:01.865Z,100329.34
2022-12-05T21:03:31.334Z,100332.84
2022-12-05T21:05:58.919Z,100329.34
2022-12-05T21:08:27.380Z,100323.31
2022-12-05T21:10:54.906Z,100322.53
2022-12-05T21:13:22.448Z,100319.34
2022-12-05T21:15:50.124Z,100323.19
2022-12-05T21:18:17.779Z,100321.19
2022-12-05T21:20:56.536Z,100317.09
2022-12-05T21:23:24.176Z,100323.94
2022-12-05T21:25:51.805Z,100320.78
2022-12-05T21:28:19.438Z,100316.53
2022-12-05T21:30:47.140Z,100326.00
2022-12-05T21:33:14.834Z,100319.34
2022-12-05T21:35:42.434Z,100321.91
2022-12-05T21:38:11.361Z,100326.19
2022-12-05T21:40:38.890Z,100330.50
2022-12-05T21:43:06.510Z,100327.22
2022-12-05T21:45:36.602Z,100334.97
2022-12-05T21:48:08.200Z,100326.19
2022-12-05T21:50:38.426Z,100324.53
2022-12-05T21:53:05.950Z,100316.00
2022-12-05T21:55:35.214Z,100316.88
2022-12-05T21:58:02.829Z,100311.88
2022-12-05T22:00:30.457Z,100318.56
2022-12-05T22:02:58.150Z,100321.09
2022-12-05T22:05:25.839Z,100314.06
2022-12-05T22:07:53.513Z,100316.63
2022-12-05T22:10:21.226Z,100317.41
2022-12-05T22:12:50.288Z,100319.97
2022-12-05T22:15:18.037Z,100320.59
2022-12-05T22:17:45.656Z,100315.50
2022-12-05T22:20:13.260Z,100313.75
2022-12-05T22:22:40.852Z,100318.56
2022-12-05T22:25:09.076Z,100314.97
2022-12-05T22:27:36.652Z,100320.78
2022-12-05T22:30:07.059Z,100321.13
2022-12-05T22:32:34.672Z,100315.59
2022-12-05T22:35:04.305Z,100323.94
2022-12-05T22:37:32.149Z,100320.25
2022-12-05T22:40:00.065Z,100322.72
2022-12-05T22:42:27.963Z,100315.69
2022-12-05T22:44:55.529Z,100319.69
2022-12-05T22:47:24.442Z,100313.31
2022-12-05T22:49:52.025Z,100308.66
2022-12-05T22:52:19.663Z,100315.16
2022-12-05T22:54:47.249Z,100319.16
2022-12-05T22:57:14.780Z,100314.75
2022-12-05T22:59:42.364Z,100307.84
2022-12-05T23:02:09.855Z,100304.16
2022-12-05T23:04:38.738Z,100315.13
2022-12-05T23:07:06.222Z,100317.38
2022-12-05T23:09:33.790Z,100308.75
2022-12-05T23:12:01.404Z,100308.59
2022-12-05T23:14:28.986Z,100308.25
2022-12-05T23:16:56.540Z,100298.75
2022-12-05T23:19:24.251Z,100302.69
2022-12-05T23:21:53.126Z,100302.59
2022-12-05T23:24:20.786Z,100294.88
2022-12-05T23:26:48.354Z,100297.50
2022-12-05T23:29:16.295Z,100290.31
2022-12-05T23:31:44.115Z,100291.06
2022-12-05T23:34:12.419Z,100295.41
2022-12-05T23:36:40.066Z,100287.50
2022-12-05T23:39:08.980Z,100296.94
2022-12-05T23:41:36.624Z,100300.97
2022-12-05T23:44:04.996Z,100291.88
2022-12-05T23:46:32.632Z,100295.28
2022-12-05T23:49:00.572Z,100302.22
2022-12-05T23:51:29.573Z,100295.56
2022-12-05T23:53:59.199Z,100302.41
2022-12-05T23:56:30.131Z,100294.16
2022-12-05T23:58:58.007Z,100289.16
